Time;durP1;ratioP1;P1;durP2;ratioP2;P2;SDS_P1;SDS_P2;PMS_P1;PMS_P2;Temp;Humidity;BMP_temperature;BMP_pressure;BME280_temperature;BME280_humidity;BME280_pressure;Samples;Min_cycle;Max_cycle;Signal;HPM_P1;HPM_P2
2022/11/06 00:01:35;;;;;;;9.10;3.60;;;9.30;99.90;;;;;;5042852;28;20518;-75
2022/11/06 00:04:01;;;;;;;10.10;3.95;;;9.30;99.90;;;;;;5024062;28;20582;-74
2022/11/06 00:09:15;;;;;;;6.90;4.45;;;9.30;99.90;;;;;;5044070;28;20041;-74
2022/11/06 00:11:41;;;;;;;11.90;4.13;;;9.30;99.90;;;;;;5009781;28;20488;-74
2022/11/06 00:14:08;;;;;;;6.53;3.00;;;9.20;99.90;;;;;;5024258;28;20033;-75
2022/11/06 00:16:37;;;;;;;9.57;3.90;;;9.20;99.90;;;;;;5026065;28;20360;-73
2022/11/06 00:19:04;;;;;;;6.28;3.92;;;9.10;99.90;;;;;;5045490;28;20723;-74
2022/11/06 00:21:31;;;;;;;8.10;3.88;;;9.10;99.90;;;;;;5042862;28;20037;-74
2022/11/06 00:23:59;;;;;;;5.90;3.03;;;9.10;99.90;;;;;;5041024;28;20040;-74
2022/11/06 00:26:28;;;;;;;12.57;6.47;;;9.10;99.90;;;;;;5025114;28;20056;-75
2022/11/06 00:28:55;;;;;;;11.88;4.93;;;9.20;99.90;;;;;;5025704;28;20147;-75
2022/11/06 00:31:31;;;;;;;8.27;4.75;;;9.20;99.90;;;;;;5027430;28;20499;-74
2022/11/06 00:33:59;;;;;;;10.80;5.43;;;9.30;99.90;;;;;;5007082;28;20480;-76
2022/11/06 00:36:26;;;;;;;10.48;3.72;;;9.40;99.90;;;;;;5042194;28;20041;-75
2022/11/06 00:38:54;;;;;;;11.48;4.13;;;9.40;99.90;;;;;;5027242;28;20068;-74
2022/11/06 00:41:21;;;;;;;9.82;3.40;;;9.50;99.90;;;;;;5039767;28;20507;-72
2022/11/06 00:43:54;;;;;;;5.38;3.17;;;9.50;99.90;;;;;;5039518;28;20024;-73
2022/11/06 00:46:21;;;;;;;14.45;3.72;;;9.50;99.90;;;;;;5039802;28;20492;-74
2022/11/06 00:48:48;;;;;;;5.20;2.97;;;9.60;99.90;;;;;;5041899;28;20032;-74
2022/11/06 00:51:27;;;;;;;5.13;2.45;;;9.50;99.90;;;;;;5007217;28;20032;-74
2022/11/06 00:53:56;;;;;;;7.72;3.13;;;9.50;99.90;;;;;;5009362;28;20389;-74
2022/11/06 00:56:23;;;;;;;9.23;4.18;;;9.60;99.90;;;;;;5042723;28;20036;-74
2022/11/06 00:58:50;;;;;;;7.25;3.22;;;9.60;99.90;;;;;;5042885;28;20426;-75
2022/11/06 01:01:31;;;;;;;6.35;2.88;;;9.60;99.90;;;;;;5027376;28;20044;-75
2022/11/06 01:04:12;;;;;;;9.57;3.15;;;9.60;99.90;;;;;;5038202;28;20029;-75
2022/11/06 01:06:41;;;;;;;7.30;3.08;;;9.50;99.90;;;;;;5041358;28;20399;-75
2022/11/06 01:09:10;;;;;;;7.18;3.45;;;9.50;99.90;;;;;;5046190;28;20416;-75
2022/11/06 01:11:45;;;;;;;10.98;2.75;;;9.40;99.90;;;;;;5012167;28;20041;-74
2022/11/06 01:14:13;;;;;;;7.60;2.78;;;9.40;99.90;;;;;;5013587;28;20048;-74
2022/11/06 01:16:39;;;;;;;6.68;2.85;;;9.40;99.90;;;;;;5040990;28;20403;-74
2022/11/06 01:19:06;;;;;;;6.32;2.63;;;9.40;99.90;;;;;;5039887;28;20049;-74
2022/11/06 01:21:37;;;;;;;4.85;2.10;;;9.40;99.90;;;;;;5022785;28;20045;-73
2022/11/06 01:24:06;;;;;;;6.38;2.60;;;9.40;99.90;;;;;;5038922;28;20511;-73
2022/11/06 01:26:33;;;;;;;6.82;3.05;;;9.40;99.90;;;;;;5042246;28;20495;-75
2022/11/06 01:29:00;;;;;;;7.25;2.60;;;9.40;99.90;;;;;;5041121;28;20033;-74
2022/11/06 01:31:28;;;;;;;6.28;2.60;;;9.40;99.90;;;;;;5038976;28;20048;-75
2022/11/06 01:33:57;;;;;;;7.65;2.30;;;9.50;99.90;;;;;;5021838;28;20040;-75
2022/11/06 01:36:24;;;;;;;6.85;2.90;;;9.50;99.90;;;;;;5007474;28;20037;-75
2022/11/06 01:38:52;;;;;;;8.00;3.25;;;9.50;99.90;;;;;;5024219;28;20041;-76
2022/11/06 01:41:21;;;;;;;8.02;3.25;;;9.60;99.90;;;;;;5039222;28;20029;-73
2022/11/06 01:44:13;;;;;;;10.75;2.38;;;9.60;99.90;;;;;;5040814;28;20036;-73
2022/11/06 01:46:39;;;;;;;7.78;2.33;;;9.60;99.90;;;;;;5041031;28;20056;-74
2022/11/06 01:49:10;;;;;;;9.48;2.05;;;9.60;99.90;;;;;;5024084;28;20037;-74
2022/11/06 01:51:44;;;;;;;4.47;1.95;;;9.70;99.90;;;;;;5037736;28;20416;-74
2022/11/06 01:54:11;;;;;;;4.32;1.55;;;9.70;99.90;;;;;;5056207;28;20041;-75
2022/11/06 01:56:38;;;;;;;9.43;2.42;;;9.70;99.90;;;;;;5025470;28;20075;-75
2022/11/06 01:59:06;;;;;;;4.07;1.45;;;9.70;99.90;;;;;;5042735;28;20045;-73
2022/11/06 02:01:33;;;;;;;5.68;2.00;;;9.60;99.90;;;;;;5011986;28;20045;-75
2022/11/06 02:04:11;;;;;;;8.00;1.90;;;9.60;99.90;;;;;;5024140;28;20044;-73
2022/11/06 02:06:37;;;;;;;3.83;1.42;;;9.60;99.90;;;;;;5022542;28;20502;-74
2022/11/06 02:09:10;;;;;;;10.48;3.03;;;9.50;99.90;;;;;;5044966;28;20288;-74
2022/11/06 02:11:42;;;;;;;7.72;2.60;;;9.50;99.90;;;;;;5024203;28;20111;-74
2022/11/06 02:14:21;;;;;;;4.72;2.47;;;9.50;99.90;;;;;;5024190;28;20033;-74
2022/11/06 02:16:51;;;;;;;7.07;2.10;;;9.40;99.90;;;;;;5047886;28;20484;-74
2022/11/06 02:19:46;;;;;;;5.45;1.60;;;9.40;99.90;;;;;;5021256;28;20502;-74
2022/11/06 02:22:12;;;;;;;10.82;2.08;;;9.50;99.90;;;;;;5037524;28;20476;-73
2022/11/06 02:25:01;;;;;;;6.38;1.40;;;9.50;99.90;;;;;;5024361;28;20055;-75
2022/11/06 02:27:29;;;;;;;7.65;1.90;;;9.50;99.90;;;;;;5023096;28;20040;-74
2022/11/06 02:30:01;;;;;;;7.95;1.95;;;9.50;99.90;;;;;;5026259;28;20507;-72
2022/11/06 02:32:50;;;;;;;2.95;1.35;;;9.60;99.90;;;;;;5037527;28;20519;-74
2022/11/06 02:35:28;;;;;;;6.13;2.10;;;9.60;99.90;;;;;;5009227;28;20040;-73
2022/11/06 02:38:00;;;;;;;8.90;2.30;;;9.60;99.90;;;;;;5043978;28;20041;-73
2022/11/06 02:40:32;;;;;;;7.10;2.50;;;9.70;99.90;;;;;;5025198;28;20033;-74
2022/11/06 02:43:04;;;;;;;8.52;3.83;;;9.70;99.90;;;;;;5038872;28;20041;-74
2022/11/06 02:45:32;;;;;;;;;;;9.60;99.90;;;;;;5026006;28;20036;-73
2022/11/06 02:48:01;;;;;;;9.38;2.05;;;9.70;99.90;;;;;;5008567;28;20012;-74
2022/11/06 02:50:34;;;;;;;5.72;1.88;;;9.70;99.90;;;;;;5041198;28;20483;-74
2022/11/06 02:53:04;;;;;;;8.98;1.58;;;9.70;99.90;;;;;;5022812;28;20100;-74
2022/11/06 02:55:43;;;;;;;7.22;0.90;;;9.70;99.90;;;;;;5039650;28;20480;-74
2022/11/06 02:58:15;;;;;;;6.07;1.92;;;9.70;99.90;;;;;;5041122;28;20056;-74
2022/11/06 03:00:50;;;;;;;4.95;1.15;;;9.70;99.90;;;;;;5023465;28;20044;-74
2022/11/06 03:03:23;;;;;;;6.90;1.95;;;9.70;99.90;;;;;;5024321;28;20040;-73
2022/11/06 03:05:58;;;;;;;5.78;1.45;;;9.70;99.90;;;;;;5045046;28;20040;-72
2022/11/06 03:08:33;;;;;;;10.88;1.90;;;9.70;99.90;;;;;;5011989;28;20040;-73
2022/11/06 03:11:16;;;;;;;4.15;1.08;;;9.70;99.90;;;;;;5027481;28;20041;-73
2022/11/06 03:14:01;;;;;;;;;;;9.70;99.90;;;;;;5025831;28;20028;-73
2022/11/06 03:16:53;;;;;;;8.73;1.73;;;9.70;99.90;;;;;;5042805;28;19928;-72
2022/11/06 03:19:28;;;;;;;3.85;0.93;;;9.70;99.90;;;;;;5011857;28;20040;-73
2022/11/06 03:22:17;;;;;;;7.68;1.88;;;9.70;99.90;;;;;;5041956;28;20037;-73
2022/11/06 03:25:01;;;;;;;10.27;1.98;;;9.70;99.90;;;;;;5042861;28;20045;-72
2022/11/06 03:27:40;;;;;;;7.32;1.58;;;9.70;99.90;;;;;;5043713;28;20047;-74
2022/11/06 03:30:09;;;;;;;5.28;1.45;;;9.70;99.90;;;;;;5042898;28;20033;-74
2022/11/06 03:32:41;;;;;;;5.22;1.45;;;9.70;99.90;;;;;;5023561;28;20476;-73
2022/11/06 03:35:11;;;;;;;6.47;1.52;;;9.70;99.90;;;;;;5026604;28;20100;-74
2022/11/06 03:38:14;;;;;;;5.80;1.27;;;9.70;99.90;;;;;;5044471;28;20063;-73
2022/11/06 03:40:45;;;;;;;6.07;1.70;;;9.70;99.90;;;;;;5043493;28;20056;-73
2022/11/06 03:43:16;;;;;;;5.57;1.10;;;9.70;99.90;;;;;;5040914;28;20476;-73
2022/11/06 03:45:44;;;;;;;6.22;1.13;;;9.70;99.90;;;;;;5043370;28;20044;-73
2022/11/06 03:48:18;;;;;;;6.90;1.77;;;9.80;99.90;;;;;;5032844;28;20060;-74
2022/11/06 03:51:03;;;;;;;4.40;1.23;;;9.80;99.90;;;;;;5041452;28;20040;-73
2022/11/06 03:53:45;;;;;;;5.93;1.60;;;9.80;99.90;;;;;;5038577;28;20373;-74
2022/11/06 03:56:32;;;;;;;4.55;1.27;;;9.80;99.90;;;;;;5043018;28;20080;-74
2022/11/06 03:59:02;;;;;;;4.07;1.70;;;9.80;99.90;;;;;;5016273;28;20045;-74
2022/11/06 04:01:32;;;;;;;4.25;1.13;;;9.80;99.90;;;;;;5041451;28;20408;-75
2022/11/06 04:04:08;;;;;;;5.68;0.98;;;9.80;99.90;;;;;;5041444;28;20404;-74
2022/11/06 04:06:44;;;;;;;7.45;1.00;;;9.80;99.90;;;;;;5009906;28;20044;-74
2022/11/06 04:14:51;;;;;;;4.25;1.15;;;9.80;99.90;;;;;;5042741;28;20037;-74
2022/11/06 04:17:21;;;;;;;5.65;1.00;;;9.80;99.90;;;;;;5025776;28;20053;-74
2022/11/06 04:19:51;;;;;;;4.80;1.23;;;9.90;99.90;;;;;;5028772;28;20384;-73
2022/11/06 04:22:27;;;;;;;5.75;1.10;;;9.90;99.90;;;;;;5040979;28;20613;-73
2022/11/06 04:28:13;;;;;;;5.43;1.52;;;9.90;99.90;;;;;;5025400;28;20338;-74
2022/11/06 04:30:53;;;;;;;3.67;0.90;;;9.90;99.90;;;;;;5043055;28;20041;-74
2022/11/06 04:33:31;;;;;;;5.20;1.05;;;9.90;99.90;;;;;;5023136;28;20033;-73
2022/11/06 04:36:07;;;;;;;4.30;1.10;;;9.90;99.90;;;;;;5026806;28;20049;-73
2022/11/06 04:38:46;;;;;;;3.55;0.75;;;9.90;99.90;;;;;;5012150;28;20051;-74
2022/11/06 04:41:33;;;;;;;4.20;1.15;;;9.90;99.90;;;;;;5027674;28;20052;-74
2022/11/06 04:44:08;;;;;;;7.93;1.35;;;10.00;99.90;;;;;;5023483;28;20037;-73
2022/11/06 04:46:43;;;;;;;7.18;1.90;;;9.90;99.90;;;;;;5044257;28;20041;-73
2022/11/06 04:49:11;;;;;;;5.60;1.30;;;10.00;99.90;;;;;;5047854;28;20045;-74
2022/11/06 04:51:39;;;;;;;5.72;0.95;;;10.00;99.90;;;;;;5025450;28;20048;-74
2022/11/06 04:54:08;;;;;;;7.65;0.90;;;10.00;99.90;;;;;;5038607;28;20037;-74
2022/11/06 04:56:36;;;;;;;5.63;0.88;;;10.00;99.90;;;;;;5042834;28;20045;-74
2022/11/06 04:59:05;;;;;;;4.55;0.80;;;10.00;99.90;;;;;;5046234;28;20032;-73
2022/11/06 05:01:32;;;;;;;4.53;1.23;;;10.00;99.90;;;;;;5043649;28;20043;-74
2022/11/06 05:03:58;;;;;;;3.70;1.00;;;10.00;99.90;;;;;;5043741;28;20062;-74
2022/11/06 05:06:25;;;;;;;6.15;0.85;;;10.10;99.90;;;;;;5043189;28;20435;-73
2022/11/06 05:08:51;;;;;;;5.40;1.38;;;10.00;99.90;;;;;;5025633;28;20037;-74
2022/11/06 05:11:17;;;;;;;3.67;1.02;;;10.00;99.90;;;;;;5041571;28;20041;-73
2022/11/06 05:13:44;;;;;;;7.65;0.90;;;10.00;99.90;;;;;;5025019;28;20033;-74
2022/11/06 05:16:10;;;;;;;3.17;0.65;;;9.90;99.90;;;;;;5030143;28;20076;-74
2022/11/06 05:18:37;;;;;;;1.70;0.60;;;9.80;99.90;;;;;;5010862;28;20053;-74
2022/11/06 05:23:48;;;;;;;4.78;1.15;;;9.80;99.90;;;;;;5040596;28;20049;-73
2022/11/06 05:26:14;;;;;;;4.60;1.30;;;9.80;99.90;;;;;;5009250;28;20029;-74
2022/11/06 05:28:41;;;;;;;4.53;0.80;;;9.80;99.90;;;;;;5042436;28;20419;-74
2022/11/06 05:31:07;;;;;;;5.63;0.70;;;9.80;99.90;;;;;;5023390;28;20048;-75
2022/11/06 05:33:33;;;;;;;6.35;0.85;;;9.80;99.90;;;;;;5038213;28;20419;-74
2022/11/06 05:36:04;;;;;;;3.85;1.25;;;9.90;99.90;;;;;;5040144;28;20515;-73
2022/11/06 05:38:31;;;;;;;5.15;0.77;;;9.90;99.90;;;;;;5044395;28;20554;-74
2022/11/06 05:40:58;;;;;;;8.52;0.95;;;10.00;99.90;;;;;;5041889;28;20506;-72
2022/11/06 05:43:24;;;;;;;4.88;0.82;;;10.00;99.90;;;;;;5037867;28;20044;-73
2022/11/06 05:45:51;;;;;;;6.05;0.90;;;10.00;99.90;;;;;;5016033;28;20621;-73
2022/11/06 05:48:17;;;;;;;4.10;0.90;;;10.00;99.90;;;;;;5024112;28;20755;-73
2022/11/06 05:50:44;;;;;;;5.03;0.80;;;10.00;99.90;;;;;;5045132;28;20067;-74
2022/11/06 05:53:15;;;;;;;3.45;0.70;;;10.10;99.90;;;;;;5007547;28;20033;-73
2022/11/06 05:55:43;;;;;;;2.80;0.60;;;10.10;99.90;;;;;;5023542;28;20424;-73
2022/11/06 05:58:10;;;;;;;3.28;0.65;;;10.10;99.90;;;;;;5040663;28;20060;-73
2022/11/06 06:00:36;;;;;;;5.18;1.08;;;10.10;99.90;;;;;;5023158;28;20625;-73
2022/11/06 06:03:02;;;;;;;3.90;0.90;;;10.10;99.90;;;;;;5022817;28;20488;-73
2022/11/06 06:05:29;;;;;;;4.43;0.90;;;10.20;99.90;;;;;;5029630;28;20029;-74
2022/11/06 06:07:55;;;;;;;9.80;1.40;;;10.10;99.90;;;;;;5040435;28;20391;-74
2022/11/06 06:10:21;;;;;;;3.28;0.77;;;10.10;99.90;;;;;;5024115;28;20480;-73
2022/11/06 06:12:49;;;;;;;7.35;1.40;;;10.20;99.90;;;;;;5022103;28;20037;-72
2022/11/06 06:15:16;;;;;;;4.35;1.42;;;10.20;99.90;;;;;;5041582;28;20381;-74
2022/11/06 06:17:44;;;;;;;5.50;1.02;;;10.20;99.90;;;;;;5023469;28;20045;-73
2022/11/06 06:20:10;;;;;;;4.78;0.88;;;10.10;99.90;;;;;;5040415;28;20033;-73
2022/11/06 06:22:39;;;;;;;8.35;0.80;;;10.10;99.90;;;;;;5022998;28;20485;-73
2022/11/06 06:25:06;;;;;;;4.68;0.80;;;10.10;99.90;;;;;;5021772;28;20033;-73
2022/11/06 06:27:33;;;;;;;4.10;1.33;;;10.10;99.90;;;;;;5040575;28;20504;-72
2022/11/06 06:29:59;;;;;;;5.22;0.85;;;10.10;99.90;;;;;;5039132;28;20060;-72
2022/11/06 06:32:25;;;;;;;4.80;1.13;;;10.10;99.90;;;;;;5037548;28;20044;-73
2022/11/06 06:34:54;;;;;;;4.82;1.25;;;10.10;99.90;;;;;;5041271;28;20040;-71
2022/11/06 06:37:21;;;;;;;5.22;0.70;;;10.10;99.90;;;;;;5025808;28;20052;-72
2022/11/06 06:39:47;;;;;;;3.47;1.00;;;10.10;99.90;;;;;;5028016;28;20488;-73
2022/11/06 06:42:13;;;;;;;6.72;1.02;;;10.10;99.90;;;;;;5042253;28;20522;-72
2022/11/06 06:44:39;;;;;;;4.22;0.80;;;10.10;99.90;;;;;;5009372;28;20067;-73
2022/11/06 06:47:06;;;;;;;3.72;0.70;;;10.20;99.90;;;;;;5027627;28;20036;-73
2022/11/06 06:49:32;;;;;;;3.90;1.55;;;10.20;99.90;;;;;;5044787;28;20937;-73
2022/11/06 06:51:58;;;;;;;4.13;0.93;;;10.10;99.90;;;;;;5042572;28;20128;-72
2022/11/06 06:54:24;;;;;;;4.53;0.77;;;10.10;99.90;;;;;;5041363;28;20036;-73
2022/11/06 06:56:51;;;;;;;4.43;0.82;;;10.20;99.90;;;;;;5045459;28;20287;-75
2022/11/06 06:59:17;;;;;;;4.88;1.08;;;10.20;99.90;;;;;;5045442;28;20600;-73
2022/11/06 07:01:43;;;;;;;7.65;1.23;;;10.20;99.90;;;;;;5044167;28;20041;-74
2022/11/06 07:04:09;;;;;;;7.38;1.35;;;10.20;99.90;;;;;;5024598;28;20045;-74
2022/11/06 07:06:36;;;;;;;5.25;0.73;;;10.20;99.90;;;;;;5043354;28;20029;-74
2022/11/06 07:09:02;;;;;;;5.18;1.02;;;10.30;99.90;;;;;;5044460;28;20037;-72
2022/11/06 07:11:28;;;;;;;4.60;1.00;;;10.20;99.90;;;;;;5025195;28;20045;-72
2022/11/06 07:13:55;;;;;;;9.65;1.95;;;10.30;99.90;;;;;;5042385;28;20400;-73
2022/11/06 07:16:21;;;;;;;5.13;1.02;;;10.30;99.90;;;;;;5031373;28;20402;-73
2022/11/06 07:18:47;;;;;;;2.83;0.70;;;10.30;99.90;;;;;;5043397;28;20049;-73
2022/11/06 07:21:13;;;;;;;7.07;1.20;;;10.40;99.90;;;;;;5044328;28;20388;-73
2022/11/06 07:23:40;;;;;;;3.55;0.93;;;10.40;99.90;;;;;;5029452;28;20492;-74
2022/11/06 07:26:07;;;;;;;4.72;1.05;;;10.40;99.90;;;;;;5043365;28;20029;-74
2022/11/06 07:28:34;;;;;;;8.55;1.00;;;10.50;99.90;;;;;;5043283;28;20025;-73
2022/11/06 07:31:03;;;;;;;6.05;1.00;;;10.50;99.90;;;;;;5026001;28;20048;-73
2022/11/06 07:33:29;;;;;;;7.97;1.98;;;10.50;99.90;;;;;;5039673;28;20029;-73
2022/11/06 07:36:10;;;;;;;4.88;1.00;;;10.60;99.90;;;;;;5025668;28;20040;-73
2022/11/06 07:38:39;;;;;;;3.33;1.02;;;10.60;99.90;;;;;;5041949;28;20040;-73
2022/11/06 07:41:11;;;;;;;4.25;0.73;;;10.60;99.90;;;;;;5047503;28;20043;-72
2022/11/06 07:43:39;;;;;;;5.03;0.90;;;10.70;99.90;;;;;;5042015;28;20073;-74
2022/11/06 07:46:08;;;;;;;3.75;0.70;;;10.80;99.90;;;;;;5029478;28;20044;-72
2022/11/06 07:48:35;;;;;;;4.07;1.73;;;10.80;99.90;;;;;;5025991;28;20040;-73
2022/11/06 07:51:03;;;;;;;6.45;2.45;;;10.90;99.90;;;;;;5042399;28;20036;-74
2022/11/06 07:53:30;;;;;;;6.10;2.90;;;10.90;99.90;;;;;;5025027;28;20037;-74
2022/11/06 07:55:56;;;;;;;5.40;1.63;;;11.00;99.90;;;;;;5024824;28;20041;-75
2022/11/06 07:58:23;;;;;;;5.55;0.90;;;11.00;99.90;;;;;;5040953;28;20317;-72
2022/11/06 08:00:51;;;;;;;4.18;1.20;;;11.10;99.90;;;;;;5025058;28;20036;-71
2022/11/06 08:03:18;;;;;;;8.85;1.23;;;11.00;99.90;;;;;;5025025;28;20037;-71
2022/11/06 08:05:46;;;;;;;2.50;0.60;;;11.10;99.90;;;;;;5044586;28;20052;-72
2022/11/06 08:08:12;;;;;;;5.65;0.65;;;11.10;99.90;;;;;;5041943;28;20040;-73
2022/11/06 08:10:46;;;;;;;9.15;3.97;;;11.10;99.90;;;;;;5042764;28;20443;-73
2022/11/06 08:13:15;;;;;;;8.95;3.85;;;11.20;99.90;;;;;;5024558;28;20037;-73
2022/11/06 08:15:42;;;;;;;6.70;1.52;;;11.20;99.90;;;;;;5043467;28;20045;-74
2022/11/06 08:18:10;;;;;;;7.18;1.55;;;11.20;99.90;;;;;;5026377;28;20036;-72
2022/11/06 08:20:37;;;;;;;3.20;0.75;;;11.30;99.90;;;;;;5008350;28;20404;-72
2022/11/06 08:23:07;;;;;;;3.22;0.85;;;11.30;99.90;;;;;;5040378;28;20487;-73
2022/11/06 08:25:34;;;;;;;5.28;2.78;;;11.50;99.90;;;;;;5044015;28;20063;-74
2022/11/06 08:28:01;;;;;;;5.28;1.13;;;11.50;99.90;;;;;;5044864;28;20388;-74
2022/11/06 08:30:29;;;;;;;9.07;2.10;;;11.50;99.90;;;;;;5024908;28;20055;-73
2022/11/06 08:33:01;;;;;;;8.82;3.35;;;11.60;99.90;;;;;;5039886;28;20037;-73
2022/11/06 08:35:28;;;;;;;8.65;1.85;;;11.70;99.90;;;;;;5010372;28;20033;-74
2022/11/06 08:37:55;;;;;;;5.43;0.90;;;11.80;99.90;;;;;;5042721;28;20522;-74
2022/11/06 08:40:22;;;;;;;2.03;0.60;;;11.80;99.90;;;;;;5021982;28;20056;-73
2022/11/06 08:42:48;;;;;;;5.80;1.10;;;11.80;99.90;;;;;;5037170;28;20455;-73
2022/11/06 08:45:14;;;;;;;5.28;1.17;;;11.80;99.90;;;;;;5040327;28;20032;-73
2022/11/06 08:47:41;;;;;;;5.25;1.40;;;11.90;99.90;;;;;;5042905;28;20037;-73
2022/11/06 08:50:07;;;;;;;5.55;1.10;;;11.90;99.90;;;;;;5019783;28;20033;-74
2022/11/06 08:52:33;;;;;;;3.85;0.60;;;11.90;99.90;;;;;;5037368;28;20041;-72
2022/11/06 08:55:00;;;;;;;6.78;0.80;;;12.00;99.90;;;;;;5040402;28;20033;-72
2022/11/06 08:57:27;;;;;;;2.78;0.77;;;12.00;99.90;;;;;;5024735;28;20053;-72
2022/11/06 08:59:53;;;;;;;3.53;1.08;;;12.00;99.90;;;;;;5010358;28;20400;-72
2022/11/06 09:02:19;;;;;;;3.97;1.15;;;12.00;99.90;;;;;;5021969;28;20060;-72
2022/11/06 09:04:45;;;;;;;8.30;1.30;;;12.10;99.90;;;;;;5023642;28;20052;-73
2022/11/06 09:07:13;;;;;;;5.28;0.70;;;12.10;99.90;;;;;;5039622;28;20053;-73
2022/11/06 09:09:39;;;;;;;4.03;0.60;;;12.10;99.90;;;;;;5039819;28;20045;-73
2022/11/06 09:12:06;;;;;;;3.63;0.70;;;12.10;99.90;;;;;;5038421;28;20112;-73
2022/11/06 09:14:33;;;;;;;5.45;0.80;;;12.20;99.90;;;;;;5035084;28;20399;-73
2022/11/06 09:16:59;;;;;;;6.75;0.70;;;12.20;99.90;;;;;;5040502;28;20040;-73
2022/11/06 09:19:26;;;;;;;2.58;0.70;;;12.20;99.90;;;;;;5042166;28;20065;-74
2022/11/06 09:21:52;;;;;;;5.53;0.70;;;12.20;99.90;;;;;;5042761;28;20041;-73
2022/11/06 09:24:18;;;;;;;6.43;0.65;;;12.20;99.90;;;;;;5021192;28;20033;-73
2022/11/06 09:26:45;;;;;;;5.22;0.70;;;12.20;99.90;;;;;;5008084;28;20453;-73
2022/11/06 09:29:11;;;;;;;3.78;0.75;;;12.30;99.90;;;;;;5025613;28;20040;-73
2022/11/06 09:31:37;;;;;;;4.22;1.15;;;12.30;99.90;;;;;;5027526;28;20450;-72
2022/11/06 09:34:03;;;;;;;2.83;0.80;;;12.40;99.90;;;;;;5023958;28;20028;-73
2022/11/06 09:36:30;;;;;;;5.93;1.38;;;12.50;99.90;;;;;;5026931;28;20058;-73
2022/11/06 09:38:56;;;;;;;1.73;0.70;;;12.60;99.90;;;;;;5010839;28;20526;-73
2022/11/06 09:42:08;;;;;;;3.70;0.70;;;12.70;99.90;;;;;;5023776;28;20036;-72
2022/11/06 09:44:53;;;;;;;7.63;1.92;;;12.80;99.90;;;;;;5020578;28;20037;-72
2022/11/06 09:47:25;;;;;;;4.78;0.70;;;12.80;99.90;;;;;;5027796;28;20033;-74
2022/11/06 09:49:53;;;;;;;4.18;0.57;;;12.90;99.90;;;;;;5027537;28;20079;-73
2022/11/06 09:52:35;;;;;;;3.92;0.65;;;12.90;99.90;;;;;;5041850;28;20033;-72
2022/11/06 09:55:09;;;;;;;4.67;0.70;;;12.90;99.90;;;;;;5011649;28;20032;-73
2022/11/06 09:57:44;;;;;;;4.82;0.70;;;13.00;99.90;;;;;;5041657;28;20056;-73
2022/11/06 10:00:13;;;;;;;4.13;0.65;;;13.10;99.90;;;;;;5007199;28;20049;-74
2022/11/06 10:02:39;;;;;;;3.03;0.85;;;13.10;99.90;;;;;;5037927;28;20618;-73
2022/11/06 10:05:21;;;;;;;3.97;0.60;;;13.10;99.90;;;;;;5024468;28;20044;-73
2022/11/06 10:07:52;;;;;;;5.15;0.80;;;13.20;99.90;;;;;;5041176;28;20044;-75
2022/11/06 10:10:23;;;;;;;3.40;0.82;;;13.20;99.90;;;;;;5038661;28;20127;-72
2022/11/06 10:13:14;;;;;;;4.53;0.73;;;13.20;99.90;;;;;;5036349;28;20077;-72
2022/11/06 10:15:43;;;;;;;4.70;1.13;;;13.20;99.90;;;;;;5039595;28;20037;-73
2022/11/06 10:18:32;;;;;;;5.55;0.88;;;13.20;99.90;;;;;;5007730;28;20036;-72
2022/11/06 10:21:14;;;;;;;5.35;1.25;;;13.30;99.90;;;;;;5037011;28;20033;-73
2022/11/06 10:23:49;;;;;;;4.28;1.20;;;13.50;99.90;;;;;;5036611;28;20048;-72
2022/11/06 10:26:26;;;;;;;3.45;0.70;;;13.50;99.90;;;;;;5040440;28;20029;-75
2022/11/06 10:28:52;;;;;;;4.80;1.13;;;13.50;99.90;;;;;;5040764;28;20041;-71
2022/11/06 10:31:42;;;;;;;7.00;1.13;;;13.40;99.90;;;;;;5035894;28;20347;-74
2022/11/06 10:34:23;;;;;;;5.45;1.23;;;13.40;99.90;;;;;;5034619;28;20709;-73
2022/11/06 10:36:59;;;;;;;4.13;0.75;;;13.40;99.90;;;;;;5024244;28;20052;-76
2022/11/06 10:39:31;;;;;;;7.65;1.35;;;13.40;99.90;;;;;;5040980;28;20037;-73
2022/11/06 10:42:11;;;;;;;5.68;1.20;;;13.40;99.90;;;;;;5006458;28;20507;-72
2022/11/06 10:44:46;;;;;;;7.18;3.20;;;13.40;99.90;;;;;;5036597;28;20032;-74
2022/11/06 10:47:21;;;;;;;8.63;2.63;;;13.40;99.90;;;;;;5023458;28;20045;-75
2022/11/06 10:49:52;;;;;;;4.63;1.10;;;13.50;99.90;;;;;;5040104;28;20040;-75
2022/11/06 10:52:37;;;;;;;4.25;0.75;;;13.60;99.90;;;;;;5040369;28;20048;-73
2022/11/06 10:55:38;;;;;;;6.47;0.75;;;13.70;99.90;;;;;;5030355;28;20060;-72
2022/11/06 10:58:09;;;;;;;7.03;1.10;;;13.60;99.90;;;;;;5040691;28;20053;-74
2022/11/06 11:00:35;;;;;;;5.55;0.85;;;13.60;99.90;;;;;;5038080;28;20041;-75
2022/11/06 11:03:05;;;;;;;4.13;0.70;;;13.60;99.90;;;;;;5042494;28;20037;-74
2022/11/06 11:05:43;;;;;;;4.93;1.00;;;13.60;99.90;;;;;;5024674;28;20041;-74
2022/11/06 11:08:41;;;;;;;5.47;1.05;;;13.60;99.90;;;;;;5040854;28;20399;-75
2022/11/06 11:11:13;;;;;;;4.25;0.70;;;13.60;99.90;;;;;;5031367;28;20037;-74
2022/11/06 11:13:47;;;;;;;5.60;0.50;;;13.60;99.90;;;;;;5021166;28;20040;-75
2022/11/06 11:16:21;;;;;;;4.60;0.68;;;13.80;99.90;;;;;;5024101;28;20045;-74
2022/11/06 11:18:49;;;;;;;5.22;0.90;;;13.90;99.90;;;;;;5023879;28;20571;-76
2022/11/06 11:21:23;;;;;;;3.85;0.47;;;13.90;99.90;;;;;;5038816;28;20037;-75
2022/11/06 11:24:07;;;;;;;6.60;1.30;;;13.80;99.90;;;;;;5041431;28;20040;-75
2022/11/06 11:26:42;;;;;;;5.72;0.60;;;13.80;99.90;;;;;;5029110;28;20454;-73
2022/11/06 11:29:40;;;;;;;6.75;1.08;;;13.70;99.90;;;;;;5026777;28;20037;-74
2022/11/06 11:32:06;;;;;;;9.95;3.03;;;13.70;99.90;;;;;;5030658;28;20059;-74
2022/11/06 11:34:37;;;;;;;8.57;1.00;;;13.70;99.90;;;;;;5041234;28;20040;-74
2022/11/06 11:37:19;;;;;;;4.68;1.08;;;13.70;99.90;;;;;;5026971;28;20052;-71
2022/11/06 11:39:48;;;;;;;4.70;1.50;;;13.70;99.90;;;;;;5028093;28;20048;-73
2022/11/06 11:42:24;;;;;;;5.85;1.00;;;13.80;99.90;;;;;;5009113;28;20056;-73
2022/11/06 11:45:08;;;;;;;7.72;0.88;;;13.80;99.90;;;;;;5027788;28;20080;-77
2022/11/06 11:47:36;;;;;;;5.07;0.60;;;13.90;99.90;;;;;;5031997;28;20048;-75
2022/11/06 11:50:33;;;;;;;4.25;0.60;;;14.00;99.90;;;;;;5044911;28;20028;-74
2022/11/06 11:53:10;;;;;;;5.30;1.00;;;14.10;99.90;;;;;;5030077;28;20064;-73
2022/11/06 11:55:42;;;;;;;7.78;1.15;;;14.10;99.90;;;;;;5026418;28;20427;-76
2022/11/06 11:58:27;;;;;;;6.37;0.90;;;14.10;99.90;;;;;;5042770;28;20057;-74
2022/11/06 12:00:59;;;;;;;3.35;0.50;;;14.10;99.90;;;;;;5009419;28;20041;-75
2022/11/06 12:03:39;;;;;;;4.28;0.60;;;14.10;99.90;;;;;;5005732;28;20049;-75
2022/11/06 12:06:17;;;;;;;4.18;0.73;;;14.10;99.90;;;;;;5025333;28;20041;-74
2022/11/06 12:08:50;;;;;;;4.65;0.70;;;14.10;99.90;;;;;;5026509;28;20037;-73
2022/11/06 12:11:34;;;;;;;2.83;0.40;;;14.00;99.90;;;;;;5017535;28;20048;-74
2022/11/06 12:14:18;;;;;;;4.10;0.73;;;13.90;99.90;;;;;;5038524;28;20044;-72
2022/11/06 12:16:47;;;;;;;2.40;0.65;;;13.90;99.90;;;;;;5025621;28;20040;-75
2022/11/06 12:19:13;;;;;;;3.53;0.50;;;13.90;99.90;;;;;;5041703;28;20424;-75
2022/11/06 12:21:43;;;;;;;2.75;0.50;;;13.90;99.90;;;;;;5038879;28;20029;-75
2022/11/06 12:24:17;;;;;;;2.85;0.43;;;13.90;99.90;;;;;;5034240;28;20036;-75
2022/11/06 12:27:11;;;;;;;6.75;3.13;;;13.80;99.90;;;;;;5020530;28;20068;-74
2022/11/06 12:29:43;;;;;;;11.63;5.97;;;13.80;99.90;;;;;;5039619;28;20045;-73
2022/11/06 12:32:35;;;;;;;6.80;2.30;;;13.70;99.90;;;;;;5022384;28;20052;-72
2022/11/06 12:35:24;;;;;;;3.42;0.70;;;13.70;99.90;;;;;;5045256;28;20060;-71
2022/11/06 12:38:15;;;;;;;3.45;0.40;;;13.60;99.90;;;;;;5025903;28;20102;-73
2022/11/06 12:40:46;;;;;;;3.03;0.38;;;13.60;99.90;;;;;;5031528;28;20435;-73
2022/11/06 12:43:28;;;;;;;3.65;0.40;;;13.50;99.90;;;;;;5040801;28;20044;-74
2022/11/06 12:45:54;;;;;;;4.15;0.50;;;13.50;99.90;;;;;;5045774;28;20719;-73
2022/11/06 12:48:46;;;;;;;3.97;0.50;;;13.60;99.90;;;;;;5025475;28;20033;-74
2022/11/06 12:51:46;;;;;;;4.88;0.50;;;13.60;99.90;;;;;;5040224;28;20033;-71
2022/11/06 12:54:18;;;;;;;5.28;0.60;;;13.60;99.90;;;;;;5039076;28;20041;-74
2022/11/06 12:57:16;;;;;;;7.05;0.60;;;13.60;99.90;;;;;;5024941;28;20861;-74
2022/11/06 13:00:07;;;;;;;3.83;0.70;;;13.60;99.90;;;;;;5022661;28;20052;-74
2022/11/06 13:02:55;;;;;;;2.40;0.60;;;13.60;99.90;;;;;;5039925;28;20052;-73
2022/11/06 13:05:47;;;;;;;3.17;0.50;;;13.60;99.90;;;;;;5044535;28;20052;-75
2022/11/06 13:08:38;;;;;;;5.50;0.80;;;13.60;99.90;;;;;;5011113;28;21371;-75
2022/11/06 13:11:20;;;;;;;5.97;0.80;;;13.60;99.90;;;;;;5021989;28;20439;-72
2022/11/06 13:14:02;;;;;;;3.47;0.57;;;13.60;99.90;;;;;;5043610;28;20034;-73
2022/11/06 13:16:41;;;;;;;3.45;0.75;;;13.60;99.90;;;;;;5026221;28;20055;-73
2022/11/06 13:19:47;;;;;;;3.22;0.43;;;13.60;99.90;;;;;;5037266;28;20036;-74
2022/11/06 13:22:31;;;;;;;3.28;0.47;;;13.60;99.90;;;;;;5040802;28;20467;-71
2022/11/06 13:25:21;;;;;;;5.70;1.50;;;13.50;99.90;;;;;;5026499;28;20056;-73
2022/11/06 13:27:50;;;;;;;33.53;18.33;;;13.60;99.90;;;;;;5026732;28;20044;-72
2022/11/06 13:30:19;;;;;;;11.65;5.68;;;13.50;99.90;;;;;;5031705;28;20063;-75
2022/11/06 13:33:09;;;;;;;8.30;3.92;;;13.50;99.90;;;;;;5034305;28;20041;-74